Time;durP1;ratioP1;P1;durP2;ratioP2;P2;SDS_P1;SDS_P2;PMS_P1;PMS_P2;Temp;Humidity;BMP_temperature;BMP_pressure;BME280_temperature;BME280_humidity;BME280_pressure;Samples;Min_cycle;Max_cycle;Signal;HPM_P1;HPM_P2
2023/02/17 00:01:36;;;;;;;;;;;;;;;27.21;35.39;95211.69;4962329;28;7454;-55
2023/02/17 00:04:08;;;;;;;;;;;;;;;27.21;35.38;95217.22;4959861;28;9273;-55
2023/02/17 00:06:34;;;;;;;;;;;;;;;27.19;35.43;95219.72;4961681;28;7056;-55
2023/02/17 00:09:00;;;;;;;;;;;;;;;27.19;35.24;95216.97;4966876;28;9070;-55
2023/02/17 00:11:27;;;;;;;;;;;;;;;27.21;35.28;95219.25;4948148;28;8697;-55
2023/02/17 00:13:54;;;;;;;;;;;;;;;27.20;35.04;95215.72;4965094;28;9177;-55
2023/02/17 00:16:25;;;;;;;;;;;;;;;27.19;35.23;95224.50;4953453;28;7128;-55
2023/02/17 00:19:00;;;;;;;;;;;;;;;27.18;35.04;95221.00;4972884;28;7055;-55
2023/02/17 00:21:32;;;;;;;;;;;;;;;27.23;35.17;95225.03;4971597;28;9048;-55
2023/02/17 00:24:04;;;;;;;;;;;;;;;27.24;35.18;95219.00;4969133;28;8823;-55
2023/02/17 00:26:32;;;;;;;;;;;;;;;27.26;35.13;95224.00;4953747;28;8908;-55
2023/02/17 00:29:14;;;;;;;;;;;;;;;27.26;35.15;95227.53;4959487;28;9012;-55
2023/02/17 00:32:03;;;;;;;;;;;;;;;27.27;35.32;95226.28;4963636;28;9377;-55
2023/02/17 00:34:30;;;;;;;;;;;;;;;27.28;34.86;95227.78;4963752;28;8741;-55
2023/02/17 00:37:00;;;;;;;;;;;;;;;27.29;35.06;95229.28;4953321;28;7248;-55
2023/02/17 00:39:43;;;;;;;;;;;;;;;27.29;35.56;95231.28;4954605;28;8743;-55
2023/02/17 00:42:44;;;;;;;;;;;;;;;27.29;35.22;95236.81;4966238;28;7026;-55
2023/02/17 00:45:21;;;;;;;;;;;;;;;27.29;35.07;95234.06;4947239;28;7020;-55
2023/02/17 00:48:01;;;;;;;;;;;;;;;27.28;34.95;95233.28;4942332;28;9061;-55
2023/02/17 00:50:37;;;;;;;;;;;;;;;27.28;35.02;95236.06;4952638;28;9391;-55
2023/02/17 00:53:19;;;;;;;;;;;;;;;27.26;35.27;95230.28;4946469;28;7206;-55
2023/02/17 00:55:54;;;;;;;;;;;;;;;27.26;35.19;95238.56;4948660;28;8711;-55
2023/02/17 00:58:35;;;;;;;;;;;;;;;27.27;35.19;95234.56;4948115;28;9371;-55
2023/02/17 01:01:26;;;;;;;;;;;;;;;27.28;35.24;95235.28;4933892;28;7083;-55
2023/02/17 01:03:53;;;;;;;;;;;;;;;27.28;35.02;95232.53;4942998;28;8721;-55
2023/02/17 01:10:08;;;;;;;;;;;;;;;27.27;35.19;95237.31;4903945;29;7316;-55
2023/02/17 01:12:37;;;;;;;;;;;;;;;27.25;35.54;95242.56;4911771;29;7011;-55
2023/02/17 01:15:39;;;;;;;;;;;;;;;27.28;35.20;95236.06;4888582;29;8742;-55
2023/02/17 01:18:08;;;;;;;;;;;;;;;27.27;35.04;95242.84;4865073;29;9100;-55
2023/02/17 01:20:40;;;;;;;;;;;;;;;27.28;34.95;95240.81;4865698;29;7849;-55
2023/02/17 01:23:18;;;;;;;;;;;;;;;27.27;35.34;95231.81;4851257;29;7114;-55
2023/02/17 01:25:50;;;;;;;;;;;;;;;27.27;35.27;95245.63;4843668;29;8745;-55
2023/02/17 01:28:19;;;;;;;;;;;;;;;27.25;34.92;95234.28;4837156;29;7402;-55
2023/02/17 01:30:57;;;;;;;;;;;;;;;27.28;35.24;95243.59;4855127;29;9076;-55
2023/02/17 01:33:32;;;;;;;;;;;;;;;27.25;35.02;95237.06;4866521;29;8787;-55
2023/02/17 01:36:06;;;;;;;;;;;;;;;27.27;34.75;95245.63;4848066;29;7305;-55
2023/02/17 01:38:35;;;;;;;;;;;;;;;27.26;35.25;95238.56;4855785;29;9063;-55
2023/02/17 01:41:09;;;;;;;;;;;;;;;27.27;35.33;95244.84;4844902;29;7462;-55
2023/02/17 01:43:39;;;;;;;;;;;;;;;27.26;35.25;95241.34;4845667;29;9030;-55
2023/02/17 01:46:17;;;;;;;;;;;;;;;27.27;35.09;95247.63;4861408;29;7343;-55
2023/02/17 01:49:03;;;;;;;;;;;;;;;27.26;35.02;95244.09;4917158;29;8295;-65
2023/02/17 01:51:36;;;;;;;;;;;;;;;27.25;35.72;95239.81;4922470;29;9012;-65
2023/02/17 01:54:19;;;;;;;;;;;;;;;27.25;34.90;95233.56;4940426;28;7048;-65
2023/02/17 01:56:49;;;;;;;;;;;;;;;27.25;35.18;95223.25;4960181;28;7104;-64
2023/02/17 01:59:23;;;;;;;;;;;;;;;27.26;35.47;95226.75;4962681;28;6865;-65
2023/02/17 02:01:57;;;;;;;;;;;;;;;27.26;35.36;95227.53;4958856;28;7533;-65
2023/02/17 02:04:31;;;;;;;;;;;;;;;27.23;35.37;95223.00;4956192;28;7343;-65
2023/02/17 02:07:00;;;;;;;;;;;;;;;27.25;35.22;95226.00;4971171;28;9080;-64
2023/02/17 02:09:46;;;;;;;;;;;;;;;27.26;35.36;95222.00;4957292;28;7080;-65
2023/02/17 02:12:29;;;;;;;;;;;;;;;27.24;35.08;95216.22;4967837;28;7036;-65
2023/02/17 02:15:12;;;;;;;;;;;;;;;27.24;35.64;95213.47;4981073;28;7272;-65
2023/02/17 02:18:17;;;;;;;;;;;;;;;27.23;35.22;95211.94;4952805;28;8891;-65
2023/02/17 02:21:11;;;;;;;;;;;;;;;27.19;35.05;95211.44;4955075;28;9098;-64
2023/02/17 02:24:15;;;;;;;;;;;;;;;27.15;35.10;95219.22;4965588;28;9107;-65
2023/02/17 02:27:06;;;;;;;;;;;;;;;27.11;34.95;95213.22;4958072;28;9133;-65
2023/02/17 02:30:09;;;;;;;;;;;;;;;27.10;35.54;95208.91;4954482;28;9023;-65
2023/02/17 02:33:13;;;;;;;;;;;;;;;27.09;35.54;95212.97;4968794;28;7038;-65
2023/02/17 02:36:22;;;;;;;;;;;;;;;27.08;35.41;95213.47;4930405;28;7168;-65
2023/02/17 02:39:28;;;;;;;;;;;;;;;27.08;35.48;95214.19;4930619;28;7078;-64
2023/02/17 02:42:06;;;;;;;;;;;;;;;27.09;35.54;95214.97;4910569;29;9071;-65
2023/02/17 02:44:33;;;;;;;;;;;;;;;27.07;35.50;95211.94;4929121;29;9072;-65
2023/02/17 02:47:45;;;;;;;;;;;;;;;27.08;35.44;95221.75;4936727;28;9048;-65
2023/02/17 02:50:49;;;;;;;;;;;;;;;27.08;35.35;95216.97;4895679;29;7303;-65
2023/02/17 02:53:18;;;;;;;;;;;;;;;27.07;35.51;95221.00;4891226;29;7249;-65
2023/02/17 02:56:35;;;;;;;;;;;;;;;27.05;35.70;95220.75;4871823;29;8856;-65
2023/02/17 02:59:46;;;;;;;;;;;;;;;27.07;35.58;95215.47;4894142;29;7172;-65
2023/02/17 03:02:38;;;;;;;;;;;;;;;27.05;35.71;95222.75;4902673;29;9358;-65
2023/02/17 03:05:11;;;;;;;;;;;;;;;27.06;35.06;95224.22;4879279;29;9094;-65
2023/02/17 03:07:53;;;;;;;;;;;;;;;27.04;35.44;95216.47;4886388;29;9157;-65
2023/02/17 03:10:23;;;;;;;;;;;;;;;27.01;35.75;95211.94;4895805;29;7917;-64
2023/02/17 03:12:49;;;;;;;;;;;;;;;27.03;35.46;95214.97;4912109;29;9135;-65
2023/02/17 03:15:15;;;;;;;;;;;;;;;27.03;35.98;95205.91;4911938;29;8324;-65
2023/02/17 03:17:44;;;;;;;;;;;;;;;27.06;35.90;95207.66;4896965;29;9500;-65
2023/02/17 03:20:16;;;;;;;;;;;;;;;27.06;35.28;95213.19;4911871;29;9363;-65
2023/02/17 03:22:47;;;;;;;;;;;;;;;27.04;35.28;95210.94;4911956;29;7520;-66
2023/02/17 03:25:24;;;;;;;;;;;;;;;27.03;35.40;95209.44;4914072;29;9370;-65
2023/02/17 03:28:20;;;;;;;;;;;;;;;27.04;35.62;95208.16;4949134;28;7225;-65
2023/02/17 03:30:46;;;;;;;;;;;;;;;27.03;36.00;95209.44;4920148;29;8655;-65
2023/02/17 03:33:51;;;;;;;;;;;;;;;27.03;35.75;95211.44;4914448;29;8983;-66
2023/02/17 03:36:28;;;;;;;;;;;;;;;27.00;35.51;95212.44;4894591;29;7533;-65
2023/02/17 03:38:57;;;;;;;;;;;;;;;27.01;35.73;95209.19;4911453;29;9076;-65
2023/02/17 03:41:24;;;;;;;;;;;;;;;27.02;35.87;95210.69;4912670;29;8765;-65
2023/02/17 03:43:50;;;;;;;;;;;;;;;27.00;35.57;95209.66;4910156;29;7022;-65
2023/02/17 03:46:17;;;;;;;;;;;;;;;27.00;35.25;95207.66;4909991;29;7285;-65
2023/02/17 03:48:48;;;;;;;;;;;;;;;26.99;35.84;95197.88;4901693;29;8963;-65
2023/02/17 03:51:24;;;;;;;;;;;;;;;27.00;35.43;95201.38;4890328;29;7089;-65
2023/02/17 03:54:09;;;;;;;;;;;;;;;26.99;35.75;95197.13;4914484;29;9038;-64
2023/02/17 03:56:37;;;;;;;;;;;;;;;26.99;35.54;95200.63;4914517;29;8728;-65
2023/02/17 03:59:38;;;;;;;;;;;;;;;27.01;35.25;95202.91;4912164;29;9131;-65
2023/02/17 04:02:13;;;;;;;;;;;;;;;26.98;36.00;95193.63;4874291;29;7465;-65
2023/02/17 04:04:39;;;;;;;;;;;;;;;26.98;36.44;95190.84;4873314;29;9053;-65
2023/02/17 04:07:05;;;;;;;;;;;;;;;26.99;35.73;95197.88;4875411;29;7021;-65
2023/02/17 04:09:40;;;;;;;;;;;;;;;26.99;35.62;95200.63;4877929;29;9516;-65
2023/02/17 04:12:09;;;;;;;;;;;;;;;26.98;36.04;95195.63;4895042;29;7031;-65
2023/02/17 04:14:46;;;;;;;;;;;;;;;26.97;35.87;95194.84;4893878;29;8704;-65
2023/02/17 04:17:41;;;;;;;;;;;;;;;26.95;35.75;95197.38;4874527;29;9155;-65
2023/02/17 04:20:17;;;;;;;;;;;;;;;26.95;35.37;95197.38;4839214;29;7101;-65
2023/02/17 04:22:45;;;;;;;;;;;;;;;26.96;35.80;95204.41;4857833;29;8058;-64
2023/02/17 04:25:14;;;;;;;;;;;;;;;26.96;35.97;95204.41;4842029;29;7230;-65
2023/02/17 04:27:50;;;;;;;;;;;;;;;26.94;35.35;95206.91;4850636;29;7111;-65
2023/02/17 04:30:43;;;;;;;;;;;;;;;26.93;35.56;95210.91;4854124;29;8616;-65
2023/02/17 04:33:11;;;;;;;;;;;;;;;26.94;35.45;95206.16;4852694;29;7270;-65
2023/02/17 04:36:07;;;;;;;;;;;;;;;26.94;35.38;95206.91;4858345;29;9629;-65
2023/02/17 04:38:36;;;;;;;;;;;;;;;26.95;35.59;95211.16;4814929;29;9500;-65
2023/02/17 04:41:31;;;;;;;;;;;;;;;26.96;35.71;95212.69;4837062;29;7463;-65
2023/02/17 04:44:54;;;;;;;;;;;;;;;26.97;36.04;95208.66;4805030;29;9245;-65
2023/02/17 04:47:40;;;;;;;;;;;;;;;26.94;35.59;95206.91;4803708;29;9211;-65
2023/02/17 04:50:11;;;;;;;;;;;;;;;26.91;36.12;95207.91;4802075;29;9359;-65
2023/02/17 04:52:50;;;;;;;;;;;;;;;26.94;35.91;95214.44;4803406;29;8974;-66
2023/02/17 04:55:28;;;;;;;;;;;;;;;26.94;36.10;95212.44;4813611;29;8997;-65
2023/02/17 04:57:56;;;;;;;;;;;;;;;26.93;35.50;95210.91;4844215;29;7263;-65
2023/02/17 05:00:53;;;;;;;;;;;;;;;26.92;35.84;95206.66;4828787;29;7261;-65
2023/02/17 05:03:30;;;;;;;;;;;;;;;26.92;36.25;95205.91;4818712;29;9172;-65
2023/02/17 05:06:32;;;;;;;;;;;;;;;26.94;36.06;95200.63;4827496;29;7140;-65
2023/02/17 05:09:08;;;;;;;;;;;;;;;26.93;35.87;95202.63;4841238;29;7060;-65
2023/02/17 05:11:49;;;;;;;;;;;;;;;26.94;35.72;95203.41;4843029;29;9775;-65
2023/02/17 05:14:15;;;;;;;;;;;;;;;26.93;36.23;95210.91;4827548;29;9008;-66
2023/02/17 05:16:41;;;;;;;;;;;;;;;26.94;35.80;95204.16;4860992;29;7276;-66
2023/02/17 05:19:08;;;;;;;;;;;;;;;26.94;35.50;95195.88;4860537;29;7677;-65
2023/02/17 05:21:48;;;;;;;;;;;;;;;26.95;35.53;95200.13;4899752;29;7427;-65
2023/02/17 05:24:44;;;;;;;;;;;;;;;26.92;35.83;95192.88;4911233;29;9473;-65
2023/02/17 05:27:19;;;;;;;;;;;;;;;26.92;35.69;95196.34;4845561;29;7284;-65
2023/02/17 05:30:14;;;;;;;;;;;;;;;26.94;35.38;95206.91;4857107;29;6861;-65
2023/02/17 05:32:41;;;;;;;;;;;;;;;26.91;35.83;95191.34;4752737;30;7195;-66
2023/02/17 05:35:09;;;;;;;;;;;;;;;26.92;36.07;95192.88;4745301;30;8779;-65
2023/02/17 05:38:04;;;;;;;;;;;;;;;26.92;35.70;95192.09;4750415;30;9044;-65
2023/02/17 05:40:35;;;;;;;;;;;;;;;26.89;35.50;95189.09;4731674;30;7140;-65
2023/02/17 05:43:33;;;;;;;;;;;;;;;26.90;35.73;95195.38;4720326;30;8692;-65
2023/02/17 05:46:05;;;;;;;;;;;;;;;26.87;36.22;95190.84;4720554;30;9091;-65
2023/02/17 05:48:56;;;;;;;;;;;;;;;26.88;36.31;95192.38;4720012;30;7287;-65
2023/02/17 05:51:23;;;;;;;;;;;;;;;26.88;35.37;95187.56;4727432;30;9611;-64
2023/02/17 05:53:54;;;;;;;;;;;;;;;26.89;35.46;95196.63;4703269;30;8917;-64
2023/02/17 05:56:40;;;;;;;;;;;;;;;26.89;36.28;95193.84;4720053;30;7524;-65
2023/02/17 05:59:06;;;;;;;;;;;;;;;26.89;35.79;95196.63;4717475;30;7149;-64
2023/02/17 06:01:31;;;;;;;;;;;;;;;26.89;35.60;95200.13;4712123;30;7270;-64
2023/02/17 06:03:57;;;;;;;;;;;;;;;26.87;35.88;95196.34;4764847;29;7231;-64
2023/02/17 06:06:24;;;;;;;;;;;;;;;26.86;36.07;95201.13;4788206;29;9739;-64
2023/02/17 06:09:05;;;;;;;;;;;;;;;26.88;35.85;95203.41;4829858;29;9651;-65
2023/02/17 06:11:32;;;;;;;;;;;;;;;26.89;36.09;95202.91;4886942;29;7502;-64
2023/02/17 06:14:00;;;;;;;;;;;;;;;26.88;36.20;95204.13;4900626;29;7015;-65
2023/02/17 06:16:55;;;;;;;;;;;;;;;26.87;36.06;95205.41;4923381;28;7365;-65
2023/02/17 06:19:24;;;;;;;;;;;;;;;26.84;35.70;95202.88;4973472;28;7240;-64
2023/02/17 06:22:02;;;;;;;;;;;;;;;26.88;35.98;95206.16;4976893;28;9075;-65
2023/02/17 06:28:08;;;;;;;;;;;;;;;26.94;35.72;95209.69;4960848;28;9280;-65
2023/02/17 06:30:40;;;;;;;;;;;;;;;26.96;35.66;95209.94;4969349;28;9145;-65
2023/02/17 06:33:11;;;;;;;;;;;;;;;26.95;35.64;95213.19;4971162;28;8781;-65
2023/02/17 06:36:07;;;;;;;;;;;;;;;26.96;35.75;95212.69;4950625;28;7073;-65
2023/02/17 06:38:38;;;;;;;;;;;;;;;26.95;35.63;95208.41;4974412;28;7446;-65
2023/02/17 06:41:35;;;;;;;;;;;;;;;27.01;35.32;95219.47;4961356;28;9170;-64
2023/02/17 06:44:47;;;;;;;;;;;;;;;27.01;35.69;95220.25;4917923;29;8961;-64
2023/02/17 06:47:25;;;;;;;;;;;;;;;27.00;35.44;95218.72;4888194;29;6989;-64
2023/02/17 06:50:25;;;;;;;;;;;;;;;26.99;35.25;95219.94;4899543;29;7926;-64
2023/02/17 06:53:00;;;;;;;;;;;;;;;26.98;35.84;95221.22;4824067;29;9400;-66
2023/02/17 06:55:57;;;;;;;;;;;;;;;26.99;35.84;95225.47;4811875;29;9267;-65
2023/02/17 06:58:24;;;;;;;;;;;;;;;27.01;36.01;95225.00;4819063;29;7042;-65
2023/02/17 07:01:01;;;;;;;;;;;;;;;27.01;35.65;95225.75;4800268;29;7253;-66
2023/02/17 07:03:30;;;;;;;;;;;;;;;27.03;35.37;95236.28;4825658;29;7245;-65
2023/02/17 07:06:04;;;;;;;;;;;;;;;27.02;35.75;95241.06;4819040;29;7038;-65
2023/02/17 07:08:44;;;;;;;;;;;;;;;27.05;35.82;95233.78;4820415;29;9420;-66
2023/02/17 07:11:44;;;;;;;;;;;;;;;27.02;35.48;95237.53;4798585;29;9168;-65
2023/02/17 07:14:12;;;;;;;;;;;;;;;27.00;35.95;95238.03;4816471;29;7291;-65
2023/02/17 07:16:39;;;;;;;;;;;;;;;27.00;35.99;95235.28;4799845;29;9189;-65
2023/02/17 07:19:05;;;;;;;;;;;;;;;26.99;35.55;95244.81;4796808;29;9652;-64
2023/02/17 07:21:59;;;;;;;;;;;;;;;27.01;35.63;95256.13;4840517;29;9532;-65
2023/02/17 07:24:36;;;;;;;;;;;;;;;26.99;36.20;95252.34;4839171;29;7131;-65
2023/02/17 07:27:21;;;;;;;;;;;;;;;27.00;35.78;95259.38;4857360;29;8714;-65
2023/02/17 07:29:47;;;;;;;;;;;;;;;27.00;35.60;95251.09;4910688;29;8708;-65
2023/02/17 07:32:14;;;;;;;;;;;;;;;27.00;35.87;95256.59;4933425;29;7639;-65
2023/02/17 07:34:41;;;;;;;;;;;;;;;27.01;36.21;95261.66;4940460;28;6977;-64
2023/02/17 07:37:07;;;;;;;;;;;;;;;27.02;36.08;95268.66;4947457;28;7429;-65
2023/02/17 07:39:34;;;;;;;;;;;;;;;27.02;35.57;95270.66;4955417;28;7022;-66
2023/02/17 07:42:03;;;;;;;;;;;;;;;26.99;35.67;95264.13;4952845;28;9123;-65
2023/02/17 07:44:31;;;;;;;;;;;;;;;27.03;35.98;95264.66;4952377;28;7045;-65
2023/02/17 07:47:15;;;;;;;;;;;;;;;27.01;36.03;95272.69;4981874;28;7467;-65
2023/02/17 07:49:41;;;;;;;;;;;;;;;26.92;35.92;95267.41;4954667;28;8699;-65
2023/02/17 07:52:11;;;;;;;;;;;;;;;26.93;34.88;95271.66;4972491;28;9496;-65
2023/02/17 07:54:37;;;;;;;;;;;;;;;26.96;34.88;95283.72;4950825;28;7275;-65
2023/02/17 07:57:04;;;;;;;;;;;;;;;26.96;34.65;95276.19;4951193;28;7077;-65
2023/02/17 07:59:36;;;;;;;;;;;;;;;26.92;34.03;95275.69;4965529;28;7076;-65
2023/02/17 08:02:02;;;;;;;;;;;;;;;26.90;33.73;95275.44;4968048;28;9022;-65
2023/02/17 08:04:28;;;;;;;;;;;;;;;26.93;33.74;95277.19;4955869;28;7041;-65
2023/02/17 08:07:01;;;;;;;;;;;;;;;26.92;34.08;95277.69;4951408;28;7258;-66
2023/02/17 08:15:01;;;;;;;;;;;;;;;26.90;33.90;95292.00;4954046;28;7298;-65
2023/02/17 08:17:31;;;;;;;;;;;;;;;26.88;34.25;95289.72;4951366;28;7508;-65
2023/02/17 08:19:58;;;;;;;;;;;;;;;26.85;34.42;95290.72;4952859;28;6860;-66
2023/02/17 08:22:26;;;;;;;;;;;;;;;26.85;34.00;95289.97;4968092;28;9161;-65
2023/02/17 08:24:52;;;;;;;;;;;;;;;26.86;34.44;95294.25;4951087;28;7171;-65
2023/02/17 08:27:25;;;;;;;;;;;;;;;26.85;34.29;95301.00;4966098;28;9014;-65
2023/02/17 08:30:03;;;;;;;;;;;;;;;26.86;34.09;95294.97;4960103;28;7524;-65
2023/02/17 08:32:31;;;;;;;;;;;;;;;26.89;34.47;95298.75;4964938;28;9143;-66
2023/02/17 08:35:11;;;;;;;;;;;;;;;26.87;34.48;95295.75;4977430;28;9213;-65
2023/02/17 08:37:41;;;;;;;;;;;;;;;26.88;34.98;95305.53;4974966;28;7488;-65
2023/02/17 08:40:38;;;;;;;;;;;;;;;26.89;34.48;95309.78;4981107;28;9018;-65
2023/02/17 08:43:09;;;;;;;;;;;;;;;26.90;34.76;95314.06;4971320;28;7045;-65
2023/02/17 08:45:41;;;;;;;;;;;;;;;26.85;35.39;95312.81;4958500;28;7280;-65
2023/02/17 08:48:18;;;;;;;;;;;;;;;26.84;35.53;95319.56;4958166;28;7731;-65
2023/02/17 08:50:59;;;;;;;;;;;;;;;26.87;35.51;95318.59;4975332;28;7041;-65
2023/02/17 08:53:39;;;;;;;;;;;;;;;26.86;35.45;95321.84;4962489;28;9545;-64
2023/02/17 08:56:19;;;;;;;;;;;;;;;26.87;35.44;95328.88;4962097;28;9429;-65
2023/02/17 08:58:48;;;;;;;;;;;;;;;26.86;35.27;95327.38;4980039;28;7481;-65
2023/02/17 09:01:19;;;;;;;;;;;;;;;26.83;35.44;95328.34;4973361;28;7053;-66
2023/02/17 09:03:49;;;;;;;;;;;;;;;26.83;35.25;95326.34;4971869;28;7270;-66
2023/02/17 09:06:52;;;;;;;;;;;;;;;26.86;35.37;95327.38;4962680;28;9631;-66
2023/02/17 09:09:33;;;;;;;;;;;;;;;26.85;35.06;95334.13;4900732;29;9597;-65
2023/02/17 09:12:11;;;;;;;;;;;;;;;26.88;35.17;95341.44;4880936;29;9489;-66
2023/02/17 09:14:52;;;;;;;;;;;;;;;26.87;35.28;95339.91;4885506;29;8294;-65
2023/02/17 09:17:29;;;;;;;;;;;;;;;26.86;35.38;95343.94;4892779;29;9107;-64
2023/02/17 09:19:56;;;;;;;;;;;;;;;26.86;35.10;95343.94;4880340;29;7264;-65
2023/02/17 09:26:08;;;;;;;;;;;;;;;26.87;35.70;95350.94;4864967;29;7592;-64
2023/02/17 09:28:45;;;;;;;;;;;;;;;26.89;35.38;95348.44;4855412;29;7282;-65
2023/02/17 09:31:35;;;;;;;;;;;;;;;26.91;35.46;95351.47;4853259;29;7412;-65
2023/02/17 09:34:33;;;;;;;;;;;;;;;26.92;35.52;95355.75;4865999;29;8994;-65
2023/02/17 09:37:11;;;;;;;;;;;;;;;26.92;36.14;95356.47;4835725;29;7095;-66
2023/02/17 09:39:38;;;;;;;;;;;;;;;26.93;35.89;95351.72;4827090;29;9000;-65
2023/02/17 09:42:05;;;;;;;;;;;;;;;26.93;35.54;95346.19;4835679;29;7214;-66
2023/02/17 09:44:46;;;;;;;;;;;;;;;26.95;34.86;95348.47;4824929;29;9162;-65
2023/02/17 09:47:24;;;;;;;;;;;;;;;26.90;35.71;95355.50;4873635;29;7032;-66
2023/02/17 09:49:59;;;;;;;;;;;;;;;26.92;35.53;95358.50;4876909;29;7286;-66
2023/02/17 09:52:44;;;;;;;;;;;;;;;26.90;35.86;95355.50;4881452;29;7267;-66
2023/02/17 09:55:18;;;;;;;;;;;;;;;26.89;35.86;95349.22;4883973;29;9031;-66
2023/02/17 09:57:58;;;;;;;;;;;;;;;26.88;35.86;95350.44;4874788;29;7250;-65
2023/02/17 10:00:35;;;;;;;;;;;;;;;26.92;36.07;95346.69;4876324;29;9072;-65
2023/02/17 10:03:31;;;;;;;;;;;;;;;26.89;36.75;95348.44;4913988;29;9152;-66
2023/02/17 10:06:08;;;;;;;;;;;;;;;26.92;36.38;95357.75;4929811;28;7114;-65
2023/02/17 10:08:48;;;;;;;;;;;;;;;26.92;36.42;95350.94;4929862;28;7195;-66
2023/02/17 10:12:02;;;;;;;;;;;;;;;26.97;36.06;95360.50;4933087;28;7602;-65
2023/02/17 10:14:40;;;;;;;;;;;;;;;26.99;35.95;95358.00;4911999;29;9075;-66
2023/02/17 10:17:46;;;;;;;;;;;;;;;27.00;36.58;95367.81;4900026;29;7270;-65
2023/02/17 10:20:34;;;;;;;;;;;;;;;26.99;36.36;95363.53;4916062;29;8961;-65
2023/02/17 10:23:25;;;;;;;;;;;;;;;26.99;36.58;95349.72;4915048;29;7369;-65
2023/02/17 10:26:18;;;;;;;;;;;;;;;26.96;36.32;95364.53;4911797;29;9145;-64
2023/02/17 10:29:06;;;;;;;;;;;;;;;26.94;37.28;95358.75;4898360;29;7486;-65
2023/02/17 10:32:23;;;;;;;;;;;;;;;26.93;36.84;95357.25;4915128;29;8701;-65
2023/02/17 10:35:04;;;;;;;;;;;;;;;26.94;36.75;95355.25;4914580;29;9360;-65
2023/02/17 10:37:30;;;;;;;;;;;;;;;26.93;37.14;95354.47;4915704;29;9104;-64
2023/02/17 10:40:02;;;;;;;;;;;;;;;26.92;36.50;95364.03;4912142;29;7280;-65
2023/02/17 10:42:49;;;;;;;;;;;;;;;26.97;36.14;95355.00;4900445;29;8210;-66
2023/02/17 10:45:53;;;;;;;;;;;;;;;26.97;36.24;95366.03;4898438;29;7435;-66
2023/02/17 10:48:41;;;;;;;;;;;;;;;26.94;36.84;95364.28;4898067;29;7280;-66
2023/02/17 10:51:18;;;;;;;;;;;;;;;26.93;36.53;95362.75;4933279;28;9030;-66
2023/02/17 10:53:56;;;;;;;;;;;;;;;26.89;36.72;95351.97;4954427;28;8615;-66
2023/02/17 10:56:44;;;;;;;;;;;;;;;26.86;36.87;95352.22;4975387;28;7305;-66
2023/02/17 10:59:42;;;;;;;;;;;;;;;26.86;36.49;95354.97;4958284;28;9165;-65
2023/02/17 11:02:43;;;;;;;;;;;;;;;26.71;37.14;95354.34;4955890;28;10083;-66
2023/02/17 11:05:54;;;;;;;;;;;;;;;26.66;36.44;95350.34;4920205;28;8905;-66
2023/02/17 11:09:07;;;;;;;;;;;;;;;26.65;37.20;95351.59;4939706;28;7277;-65
2023/02/17 11:12:11;;;;;;;;;;;;;;;26.64;37.47;95349.31;4892228;29;9057;-66
2023/02/17 11:14:53;;;;;;;;;;;;;;;26.61;38.16;95350.31;4879871;29;8996;-66
2023/02/17 11:17:53;;;;;;;;;;;;;;;26.68;37.55;95336.03;4879508;29;9016;-65
2023/02/17 11:20:37;;;;;;;;;;;;;;;26.72;37.67;95339.31;4888904;29;9337;-65
2023/02/17 11:23:14;;;;;;;;;;;;;;;26.65;38.69;95345.31;4890106;29;9721;-66
2023/02/17 11:26:01;;;;;;;;;;;;;;;26.64;38.08;95343.81;4888877;29;7252;-66
2023/02/17 11:28:29;;;;;;;;;;;;;;;26.63;38.19;95332.00;4878196;29;9622;-66
2023/02/17 11:30:58;;;;;;;;;;;;;;;26.68;37.98;95328.53;4890261;29;8759;-66
2023/02/17 11:33:38;;;;;;;;;;;;;;;26.67;37.96;95315.97;4864760;29;9456;-66
2023/02/17 11:36:20;;;;;;;;;;;;;;;26.73;38.21;95325.03;4884636;29;8654;-66
2023/02/17 11:38:48;;;;;;;;;;;;;;;26.76;37.56;95328.81;4891078;29;9469;-66
2023/02/17 11:41:18;;;;;;;;;;;;;;;26.78;37.92;95321.56;4909642;29;7313;-66
2023/02/17 11:43:59;;;;;;;;;;;;;;;26.79;37.59;95311.28;4917524;29;7045;-66
2023/02/17 11:46:38;;;;;;;;;;;;;;;26.80;37.67;95310.00;4908000;29;9156;-66
2023/02/17 11:49:30;;;;;;;;;;;;;;;26.80;37.36;95313.53;4953782;28;9022;-66
2023/02/17 11:52:22;;;;;;;;;;;;;;;26.81;36.97;95306.00;4963126;28;9040;-65
2023/02/17 11:55:13;;;;;;;;;;;;;;;26.80;37.37;95301.72;4909217;29;7026;-66
2023/02/17 11:57:43;;;;;;;;;;;;;;;26.85;37.52;95296.25;4930072;28;9039;-66
2023/02/17 12:00:43;;;;;;;;;;;;;;;26.84;37.50;95293.97;4931344;29;7380;-66
2023/02/17 12:03:47;;;;;;;;;;;;;;;26.83;36.88;95298.75;4917672;29;8764;-66
2023/02/17 12:06:58;;;;;;;;;;;;;;;26.82;36.95;95283.44;4920502;29;9057;-66
2023/02/17 12:10:08;;;;;;;;;;;;;;;26.82;36.78;95279.91;4886694;29;8440;-65
2023/02/17 12:13:24;;;;;;;;;;;;;;;26.83;37.10;95289.72;4884885;29;7256;-66
2023/02/17 12:16:29;;;;;;;;;;;;;;;26.84;36.96;95285.69;4875252;29;7336;-66
2023/02/17 12:19:13;;;;;;;;;;;;;;;26.81;36.91;95283.94;4876652;29;7289;-67
2023/02/17 12:22:01;;;;;;;;;;;;;;;26.79;36.92;95275.41;4872580;29;7304;-66
2023/02/17 12:24:53;;;;;;;;;;;;;;;26.85;36.73;95281.69;4871281;29;9409;-66
2023/02/17 12:27:32;;;;;;;;;;;;;;;26.85;36.88;95282.44;4866955;29;7002;-65
2023/02/17 12:30:55;;;;;;;;;;;;;;;26.84;37.16;95283.69;4872842;29;9076;-66
2023/02/17 12:34:14;;;;;;;;;;;;;;;26.86;36.94;95278.41;4934564;29;8737;-66
2023/02/17 12:36:50;;;;;;;;;;;;;;;26.83;36.91;95284.94;4917884;29;9149;-66
2023/02/17 12:39:55;;;;;;;;;;;;;;;26.81;36.95;95281.16;4923101;29;7348;-65
2023/02/17 12:42:25;;;;;;;;;;;;;;;26.79;36.99;95289.19;4916648;29;9206;-66
2023/02/17 12:45:03;;;;;;;;;;;;;;;26.78;36.73;95282.16;4929530;29;8465;-66
2023/02/17 12:48:01;;;;;;;;;;;;;;;26.81;36.50;95278.41;4965711;28;8090;-66
2023/02/17 12:50:53;;;;;;;;;;;;;;;26.82;36.44;95277.16;4965569;28;7238;-66
2023/02/17 12:53:41;;;;;;;;;;;;;;;26.83;36.86;95273.91;4963017;28;7044;-65
2023/02/17 12:56:47;;;;;;;;;;;;;;;26.82;36.37;95268.88;4962507;28;7367;-66
2023/02/17 12:59:25;;;;;;;;;;;;;;;26.79;36.13;95262.34;4952861;28;7206;-65
2023/02/17 13:02:05;;;;;;;;;;;;;;;26.80;36.27;95255.56;4964892;28;8715;-65
2023/02/17 13:04:33;;;;;;;;;;;;;;;26.77;36.44;95259.31;4962122;28;8743;-66
2023/02/17 13:07:09;;;;;;;;;;;;;;;26.79;36.74;95262.34;4948060;28;7215;-64
2023/02/17 13:09:43;;;;;;;;;;;;;;;26.78;36.57;95260.84;4965647;28;7994;-64
2023/02/17 13:12:39;;;;;;;;;;;;;;;26.78;36.83;95258.06;4969015;28;8102;-64
2023/02/17 13:15:41;;;;;;;;;;;;;;;26.83;36.06;95251.06;4950238;28;9062;-65
2023/02/17 13:18:26;;;;;;;;;;;;;;;26.82;35.71;95255.81;4971751;28;7251;-65
2023/02/17 13:21:19;;;;;;;;;;;;;;;26.83;35.70;95245.53;4972293;28;7286;-66
2023/02/17 13:24:34;;;;;;;;;;;;;;;26.76;36.07;95243.25;4971724;28;7313;-66
2023/02/17 13:27:34;;;;;;;;;;;;;;;26.80;35.79;95241.00;4931605;29;8705;-65
2023/02/17 13:30:29;;;;;;;;;;;;;;;26.83;36.13;95248.31;4930533;29;9728;-66
2023/02/17 13:33:25;;;;;;;;;;;;;;;26.81;35.81;95245.28;4935441;29;9328;-65
2023/02/17 13:35:51;;;;;;;;;;;;;;;26.84;35.69;95247.03;4926613;29;7077;-65
2023/02/17 13:39:00;;;;;;;;;;;;;;;26.81;35.74;95248.06;4932695;29;8941;-65
2023/02/17 13:42:23;;;;;;;;;;;;;;;26.84;35.93;95258.84;4934673;28;9008;-66
2023/02/17 13:44:50;;;;;;;;;;;;;;;26.84;36.44;95249.78;4915657;29;7279;-66
2023/02/17 13:47:56;;;;;;;;;;;;;;;26.86;36.01;95252.84;4916021;29;8997;-66
2023/02/17 13:50:46;;;;;;;;;;;;;;;26.83;36.48;95246.31;4915221;29;7724;-66
2023/02/17 13:53:40;;;;;;;;;;;;;;;26.86;35.81;95247.31;4900021;29;9297;-66
2023/02/17 13:56:26;;;;;;;;;;;;;;;26.85;36.38;95245.78;4910907;29;7318;-66
2023/02/17 13:59:30;;;;;;;;;;;;;;;26.88;36.08;95247.56;4892956;29;7346;-66
2023/02/17 14:02:18;;;;;;;;;;;;;;;26.88;36.22;95250.34;4907173;29;8549;-66
2023/02/17 14:04:45;;;;;;;;;;;;;;;26.88;35.93;95253.09;4912777;29;7342;-65
2023/02/17 14:07:12;;;;;;;;;;;;;;;26.89;35.75;95258.09;4910269;29;9717;-65
2023/02/17 14:09:40;;;;;;;;;;;;;;;26.89;35.70;95251.81;4912683;29;9317;-65
2023/02/17 14:12:22;;;;;;;;;;;;;;;26.88;35.72;95253.81;4910309;29;9302;-66
2023/02/17 14:15:13;;;;;;;;;;;;;;;26.90;36.20;95254.06;4909965;29;9828;-66
2023/02/17 14:18:13;;;;;;;;;;;;;;;26.92;35.83;95250.06;4968648;28;7284;-65
2023/02/17 14:20:40;;;;;;;;;;;;;;;26.91;36.07;95257.59;4936327;28;7321;-65
2023/02/17 14:23:14;;;;;;;;;;;;;;;26.89;36.07;95252.59;4932950;28;7283;-66
2023/02/17 14:25:51;;;;;;;;;;;;;;;26.87;35.75;95249.56;4917062;29;7042;-66
2023/02/17 14:28:27;;;;;;;;;;;;;;;26.89;35.88;95257.34;4930718;29;7525;-66